Time;durP1;ratioP1;P1;durP2;ratioP2;P2;SDS_P1;SDS_P2;PMS_P1;PMS_P2;Temp;Humidity;BMP_temperature;BMP_pressure;BME280_temperature;BME280_humidity;BME280_pressure;Samples;Min_cycle;Max_cycle;Signal;HPM_P1;HPM_P2
2021/06/19 00:02:01;;;;;;;7.60;5.22;;;23.60;90.50;;;;;;5052856;28;20036;-84
2021/06/19 00:04:30;;;;;;;9.75;5.63;;;23.60;90.50;;;;;;5050858;28;20035;-85
2021/06/19 00:07:03;;;;;;;7.47;5.40;;;23.60;90.50;;;;;;5036105;28;20025;-84
2021/06/19 00:09:31;;;;;;;8.00;5.22;;;23.50;90.60;;;;;;5049919;28;20059;-84
2021/06/19 00:11:58;;;;;;;10.43;5.80;;;23.50;90.80;;;;;;5065308;28;20020;-85
2021/06/19 00:14:24;;;;;;;11.13;5.55;;;23.50;90.80;;;;;;5054742;28;20029;-85
2021/06/19 00:16:50;;;;;;;8.52;5.43;;;23.50;90.80;;;;;;5046578;28;20436;-85
2021/06/19 00:19:16;;;;;;;7.53;6.00;;;23.50;90.80;;;;;;5051408;28;20441;-85
2021/06/19 00:21:51;;;;;;;9.43;6.05;;;23.40;90.70;;;;;;5064394;28;20104;-84
2021/06/19 00:24:23;;;;;;;9.43;5.57;;;23.40;90.80;;;;;;5037740;28;20119;-85
2021/06/19 00:26:50;;;;;;;7.60;5.63;;;23.40;90.80;;;;;;5073780;28;20082;-85
2021/06/19 00:29:17;;;;;;;7.72;5.90;;;23.40;90.90;;;;;;5040160;28;20049;-85
2021/06/19 00:31:44;;;;;;;12.00;5.75;;;23.30;91.00;;;;;;5068460;28;20037;-85
2021/06/19 00:34:10;;;;;;;8.50;5.22;;;23.30;91.00;;;;;;5038627;28;20457;-85
2021/06/19 00:36:36;;;;;;;10.85;6.18;;;23.30;91.00;;;;;;5028538;28;20022;-85
2021/06/19 00:39:28;;;;;;;9.45;5.82;;;23.30;91.00;;;;;;5054840;28;20029;-85
2021/06/19 00:41:53;;;;;;;9.00;6.20;;;23.30;91.10;;;;;;5050312;28;20033;-84
2021/06/19 00:44:38;;;;;;;8.38;5.90;;;23.30;91.10;;;;;;5057731;28;20085;-85
2021/06/19 00:47:04;;;;;;;8.82;5.53;;;23.30;90.80;;;;;;5046999;28;20021;-85
2021/06/19 00:49:29;;;;;;;10.25;6.00;;;23.20;91.00;;;;;;5055543;28;20025;-85
2021/06/19 00:51:55;;;;;;;9.63;5.78;;;23.20;91.00;;;;;;5061932;28;20048;-85
2021/06/19 00:54:22;;;;;;;6.57;5.40;;;23.20;91.10;;;;;;5052013;28;20124;-85
2021/06/19 00:56:48;;;;;;;8.23;5.20;;;23.20;91.10;;;;;;5053522;28;20078;-85
2021/06/19 00:59:16;;;;;;;6.88;4.22;;;23.20;91.00;;;;;;5055268;28;20081;-85
2021/06/19 01:01:41;;;;;;;5.55;3.92;;;23.10;90.70;;;;;;5058418;28;20029;-85
2021/06/19 01:04:07;;;;;;;5.35;2.90;;;23.10;90.70;;;;;;5072116;28;20377;-85
2021/06/19 01:06:34;;;;;;;3.10;2.53;;;23.00;90.40;;;;;;5072440;28;20130;-85
2021/06/19 01:09:02;;;;;;;3.13;1.90;;;23.00;90.20;;;;;;5037591;28;20021;-85
2021/06/19 01:11:30;;;;;;;4.50;1.77;;;22.90;90.10;;;;;;5045207;28;20056;-85
2021/06/19 01:13:55;;;;;;;3.17;1.83;;;22.90;89.80;;;;;;5057784;28;20041;-85
2021/06/19 01:16:21;;;;;;;2.47;1.60;;;22.80;90.00;;;;;;5071765;28;20377;-85
2021/06/19 01:18:48;;;;;;;3.00;1.40;;;22.80;90.00;;;;;;5054765;28;20469;-85
2021/06/19 01:21:25;;;;;;;1.65;1.50;;;22.80;90.00;;;;;;5055038;28;20031;-85
2021/06/19 01:23:53;;;;;;;2.70;1.60;;;22.70;90.00;;;;;;5071645;28;20051;-85
2021/06/19 01:26:21;;;;;;;2.88;1.90;;;22.70;89.50;;;;;;5088790;28;20036;-85
2021/06/19 01:28:49;;;;;;;3.33;1.50;;;22.70;89.50;;;;;;5068915;22;20408;-87
2021/06/19 01:31:15;;;;;;;1.55;1.40;;;22.60;89.30;;;;;;5089395;28;20021;-87
2021/06/19 01:33:43;;;;;;;4.43;1.75;;;22.60;89.50;;;;;;5067541;28;20031;-87
2021/06/19 01:36:10;;;;;;;2.15;1.50;;;22.60;89.40;;;;;;5057772;28;20035;-87
2021/06/19 01:38:40;;;;;;;2.60;1.63;;;22.60;89.60;;;;;;5054514;28;20025;-87
2021/06/19 01:41:16;;;;;;;;;;;22.60;89.70;;;;;;5051892;28;20035;-87
2021/06/19 01:43:43;;;;;;;1.73;1.60;;;22.60;89.70;;;;;;5075894;28;19904;-87
2021/06/19 01:46:10;;;;;;;3.80;1.80;;;22.60;89.60;;;;;;5061984;28;20020;-87
2021/06/19 01:48:35;;;;;;;2.88;1.70;;;22.60;89.60;;;;;;5062039;28;20485;-87
2021/06/19 01:51:01;;;;;;;3.53;1.90;;;22.60;89.50;;;;;;5078471;28;20035;-88
2021/06/19 01:53:27;;;;;;;4.35;2.20;;;22.50;89.60;;;;;;5058111;28;20025;-87
2021/06/19 01:55:52;;;;;;;2.67;1.70;;;22.50;89.60;;;;;;5048573;28;20557;-88
2021/06/19 01:58:19;;;;;;;2.53;1.80;;;22.50;90.20;;;;;;5049087;28;20049;-87
2021/06/19 02:00:45;;;;;;;2.03;1.77;;;22.50;89.90;;;;;;5070190;28;20060;-87
2021/06/19 02:03:11;;;;;;;2.92;1.73;;;22.50;90.00;;;;;;5061557;28;20032;-87
2021/06/19 02:05:36;;;;;;;2.92;1.70;;;22.50;90.00;;;;;;5044812;28;20516;-87
2021/06/19 02:08:05;;;;;;;2.30;1.90;;;22.50;90.00;;;;;;5061396;28;20032;-87
2021/06/19 02:10:34;;;;;;;3.00;1.75;;;22.60;90.00;;;;;;5077905;28;20020;-87
2021/06/19 02:13:00;;;;;;;3.05;1.77;;;22.60;90.00;;;;;;5077783;28;20028;-87
2021/06/19 02:15:27;;;;;;;4.10;1.92;;;22.50;90.00;;;;;;5074451;28;20044;-87
2021/06/19 02:17:54;;;;;;;2.75;1.80;;;22.50;90.00;;;;;;5077903;28;20020;-87
2021/06/19 02:20:21;;;;;;;3.22;2.20;;;22.50;90.10;;;;;;5061480;28;20107;-88
2021/06/19 02:22:47;;;;;;;2.33;1.90;;;22.50;90.10;;;;;;5061455;28;20431;-87
2021/06/19 02:25:15;;;;;;;3.20;2.00;;;22.40;90.20;;;;;;5077759;28;20020;-88
2021/06/19 02:28:05;;;;;;;3.17;2.10;;;22.40;90.20;;;;;;5075029;28;20020;-87
2021/06/19 02:30:37;;;;;;;4.43;2.28;;;22.40;90.20;;;;;;5077120;28;20042;-88
2021/06/19 02:33:04;;;;;;;3.50;2.17;;;22.40;90.30;;;;;;5077643;28;20048;-88
2021/06/19 02:35:32;;;;;;;3.22;1.88;;;22.40;90.40;;;;;;5059537;28;20021;-88
2021/06/19 02:37:59;;;;;;;4.13;2.30;;;22.30;90.40;;;;;;5077447;28;20016;-88
2021/06/19 02:40:26;;;;;;;2.72;2.10;;;22.30;90.70;;;;;;5044197;28;20555;-88
2021/06/19 02:42:52;;;;;;;3.30;2.05;;;22.30;90.50;;;;;;5077693;28;20016;-88
2021/06/19 02:45:18;;;;;;;3.05;2.00;;;22.30;90.50;;;;;;5040737;28;20025;-88
2021/06/19 02:47:49;;;;;;;3.72;2.05;;;22.30;90.60;;;;;;5073412;28;20107;-88
2021/06/19 02:50:16;;;;;;;5.20;2.17;;;22.30;90.70;;;;;;5082689;28;20050;-88
2021/06/19 02:52:43;;;;;;;4.82;2.15;;;22.30;90.70;;;;;;5065893;28;20112;-87
2021/06/19 02:55:15;;;;;;;3.17;2.10;;;22.30;90.80;;;;;;5075838;28;20024;-87
2021/06/19 02:57:41;;;;;;;3.03;2.25;;;22.30;90.70;;;;;;5076989;28;20431;-88
2021/06/19 03:00:10;;;;;;;5.10;2.60;;;22.30;90.80;;;;;;5076942;28;20377;-88
2021/06/19 03:02:35;;;;;;;4.38;2.70;;;22.30;90.90;;;;;;5085790;28;20032;-88
2021/06/19 03:05:02;;;;;;;2.63;2.03;;;22.20;90.90;;;;;;5065046;28;20023;-87
2021/06/19 03:07:28;;;;;;;4.22;2.72;;;22.20;91.00;;;;;;5060342;28;20024;-87
2021/06/19 03:09:54;;;;;;;5.00;2.33;;;22.20;91.10;;;;;;5060028;28;20120;-88
2021/06/19 03:12:19;;;;;;;3.90;2.10;;;22.30;91.10;;;;;;5060386;28;20035;-87
2021/06/19 03:14:45;;;;;;;2.45;2.10;;;22.30;91.10;;;;;;5076817;28;20073;-88
2021/06/19 03:17:12;;;;;;;2.88;2.00;;;22.30;91.10;;;;;;5056672;28;20020;-87
2021/06/19 03:19:38;;;;;;;4.40;2.70;;;22.30;91.10;;;;;;5051960;28;20496;-88
2021/06/19 03:22:05;;;;;;;4.40;2.60;;;22.30;91.20;;;;;;5090798;28;20020;-88
2021/06/19 03:24:40;;;;;;;2.55;2.33;;;22.30;91.20;;;;;;5076805;28;20114;-88
2021/06/19 03:27:12;;;;;;;2.58;2.20;;;22.30;91.20;;;;;;5076513;28;20051;-88
2021/06/19 03:29:37;;;;;;;3.05;2.53;;;22.30;91.20;;;;;;5073002;28;20044;-87
2021/06/19 03:32:04;;;;;;;2.97;2.40;;;22.30;91.30;;;;;;5056503;28;20035;-88
2021/06/19 03:34:30;;;;;;;3.10;2.58;;;22.20;91.30;;;;;;5073086;28;20039;-86
2021/06/19 03:36:59;;;;;;;3.85;3.05;;;22.20;91.30;;;;;;5053165;28;20021;-87
2021/06/19 03:39:32;;;;;;;2.83;2.42;;;22.30;91.30;;;;;;5056817;28;20031;-88
2021/06/19 03:41:59;;;;;;;2.78;2.33;;;22.30;91.30;;;;;;5057521;28;20544;-87
2021/06/19 03:44:26;;;;;;;3.60;2.78;;;22.30;91.30;;;;;;5072607;28;20043;-88
2021/06/19 03:46:53;;;;;;;3.88;2.55;;;22.30;91.30;;;;;;5073059;28;20537;-88
2021/06/19 03:49:20;;;;;;;3.95;2.75;;;22.20;91.30;;;;;;5072937;28;20044;-88
2021/06/19 03:51:47;;;;;;;3.60;2.90;;;22.20;91.40;;;;;;5072900;28;20082;-88
2021/06/19 03:54:13;;;;;;;3.72;3.00;;;22.20;91.30;;;;;;5072618;28;20028;-87
2021/06/19 03:56:38;;;;;;;4.88;2.83;;;22.20;91.30;;;;;;5052953;28;20420;-87
2021/06/19 03:59:04;;;;;;;4.03;2.88;;;22.20;91.30;;;;;;5072935;28;20028;-87
2021/06/19 04:01:30;;;;;;;3.45;2.75;;;22.20;91.30;;;;;;5072577;28;20044;-88
2021/06/19 04:03:56;;;;;;;3.47;2.40;;;22.20;91.40;;;;;;5052711;28;20474;-88
2021/06/19 04:06:22;;;;;;;2.50;2.22;;;22.20;91.40;;;;;;5055369;28;20120;-88
2021/06/19 04:08:47;;;;;;;3.22;2.25;;;22.30;91.50;;;;;;5072559;28;20088;-88
2021/06/19 04:11:14;;;;;;;2.80;2.40;;;22.20;91.40;;;;;;5055828;28;20162;-88
2021/06/19 04:13:40;;;;;;;3.17;2.40;;;22.30;91.50;;;;;;5055880;28;20077;-88
2021/06/19 04:16:09;;;;;;;3.35;2.50;;;22.20;91.40;;;;;;5055719;28;20046;-88
2021/06/19 04:18:35;;;;;;;3.25;2.50;;;22.20;91.40;;;;;;5072298;28;20108;-88
2021/06/19 04:21:01;;;;;;;2.53;2.33;;;22.30;91.50;;;;;;5055739;28;20024;-88
2021/06/19 04:23:26;;;;;;;2.90;2.60;;;22.20;91.60;;;;;;5052214;28;20116;-87
2021/06/19 04:25:52;;;;;;;3.63;2.92;;;22.20;91.50;;;;;;5042402;28;20033;-87
2021/06/19 04:28:33;;;;;;;3.53;2.67;;;22.20;91.40;;;;;;5054932;28;20078;-88
2021/06/19 04:31:00;;;;;;;4.68;2.90;;;22.20;91.50;;;;;;5035428;28;20437;-88
2021/06/19 04:33:27;;;;;;;4.30;2.85;;;22.20;91.50;;;;;;5018159;28;20026;-88
2021/06/19 04:35:54;;;;;;;4.00;2.75;;;22.20;91.50;;;;;;5035658;28;20025;-88
2021/06/19 04:38:20;;;;;;;5.53;3.05;;;22.20;91.50;;;;;;5053241;28;20024;-88
2021/06/19 04:43:14;;;;;;;3.33;2.42;;;22.10;91.50;;;;;;5051976;28;20040;-87
2021/06/19 04:45:40;;;;;;;3.85;2.53;;;22.10;91.60;;;;;;5051904;28;20383;-87
2021/06/19 04:48:07;;;;;;;3.38;2.60;;;22.10;91.60;;;;;;5018815;28;20029;-87
2021/06/19 04:50:35;;;;;;;3.30;2.45;;;22.10;91.60;;;;;;5035207;28;20032;-88
2021/06/19 04:53:02;;;;;;;4.18;2.65;;;22.10;91.60;;;;;;5031068;28;20057;-87
2021/06/19 04:55:29;;;;;;;5.18;3.08;;;22.10;91.60;;;;;;5052011;28;20385;-88
2021/06/19 04:57:57;;;;;;;5.30;2.63;;;22.10;91.60;;;;;;5031900;28;20037;-88
2021/06/19 05:00:25;;;;;;;5.18;2.90;;;22.00;91.60;;;;;;5035583;28;20036;-88
2021/06/19 05:02:51;;;;;;;4.20;3.40;;;22.00;91.70;;;;;;5051741;28;20024;-89
2021/06/19 05:05:17;;;;;;;3.92;3.10;;;22.00;91.70;;;;;;5052054;28;20025;-88
2021/06/19 05:07:43;;;;;;;4.03;3.45;;;22.00;91.70;;;;;;5051660;28;20036;-88
2021/06/19 05:10:09;;;;;;;4.60;3.67;;;22.00;91.70;;;;;;5015097;28;20064;-87
2021/06/19 05:12:36;;;;;;;5.25;3.50;;;22.00;91.80;;;;;;5051485;28;20048;-88
2021/06/19 05:15:04;;;;;;;5.75;3.65;;;22.00;91.90;;;;;;5031866;28;20026;-88
2021/06/19 05:17:30;;;;;;;5.38;4.22;;;21.90;91.80;;;;;;5018307;28;20021;-88
2021/06/19 05:19:57;;;;;;;4.63;3.80;;;21.90;91.80;;;;;;5031313;28;20467;-88
2021/06/19 05:22:23;;;;;;;5.40;4.47;;;21.90;91.90;;;;;;5035075;28;20029;-88
2021/06/19 05:24:49;;;;;;;5.13;4.18;;;21.90;91.80;;;;;;5018440;28;20040;-89
2021/06/19 05:27:15;;;;;;;5.40;4.38;;;21.90;91.70;;;;;;5051735;28;20081;-88
2021/06/19 05:29:40;;;;;;;4.47;4.00;;;21.90;91.60;;;;;;5034564;28;20182;-88
2021/06/19 05:32:07;;;;;;;5.50;4.30;;;21.90;91.60;;;;;;5051831;28;20033;-89
2021/06/19 05:34:33;;;;;;;4.38;3.97;;;21.90;91.60;;;;;;5051465;28;20017;-88
2021/06/19 05:36:58;;;;;;;6.50;4.90;;;21.90;91.60;;;;;;5031492;28;20471;-87
2021/06/19 05:39:24;;;;;;;6.10;4.00;;;21.90;91.40;;;;;;5042621;28;20074;-88
2021/06/19 05:41:50;;;;;;;7.07;4.30;;;21.90;91.40;;;;;;5051721;28;20074;-86
2021/06/19 05:44:16;;;;;;;5.80;4.35;;;21.90;91.50;;;;;;5034990;28;20493;-87
2021/06/19 05:46:41;;;;;;;5.18;4.55;;;21.90;91.40;;;;;;5051410;28;20032;-88
2021/06/19 05:49:07;;;;;;;4.65;3.72;;;21.90;91.30;;;;;;5051460;28;20022;-88
2021/06/19 05:51:34;;;;;;;4.97;4.13;;;21.90;91.30;;;;;;5034654;28;20025;-87
2021/06/19 05:54:01;;;;;;;5.88;4.93;;;21.90;91.20;;;;;;5052311;28;20060;-88
2021/06/19 05:56:27;;;;;;;7.10;4.97;;;21.90;91.10;;;;;;5034593;28;20110;-87
2021/06/19 05:58:52;;;;;;;6.05;4.25;;;21.90;90.90;;;;;;5034814;28;20489;-89
2021/06/19 06:01:30;;;;;;;5.03;4.50;;;21.90;91.00;;;;;;5035041;28;20120;-87
2021/06/19 06:03:56;;;;;;;6.68;4.85;;;21.90;90.90;;;;;;5022366;28;20029;-89
2021/06/19 06:06:22;;;;;;;5.75;5.13;;;21.90;90.90;;;;;;5014724;28;20029;-89
2021/06/19 06:08:47;;;;;;;5.57;4.90;;;21.90;91.00;;;;;;5033902;28;20032;-89
2021/06/19 06:11:13;;;;;;;6.50;4.32;;;21.90;90.90;;;;;;5015207;28;20582;-89
2021/06/19 06:13:39;;;;;;;4.70;3.78;;;21.90;91.00;;;;;;5037709;28;20035;-89
2021/06/19 06:16:05;;;;;;;8.57;7.13;;;21.90;91.10;;;;;;5034619;28;20021;-88
2021/06/19 06:18:31;;;;;;;10.65;9.15;;;21.90;91.10;;;;;;5051296;28;20017;-88
2021/06/19 06:20:56;;;;;;;13.48;10.65;;;21.90;91.10;;;;;;5031258;28;20044;-88
2021/06/19 06:23:25;;;;;;;12.75;10.80;;;21.90;91.00;;;;;;5034518;28;20120;-87
2021/06/19 06:25:52;;;;;;;14.88;11.43;;;21.90;91.10;;;;;;5050885;28;20021;-87
2021/06/19 06:28:18;;;;;;;13.13;10.52;;;21.90;91.00;;;;;;5031677;28;20033;-88
2021/06/19 06:30:45;;;;;;;13.48;10.90;;;21.90;91.10;;;;;;5035926;28;20049;-89
2021/06/19 06:33:11;;;;;;;14.90;11.70;;;21.90;91.20;;;;;;5038194;28;20048;-88
2021/06/19 06:35:37;;;;;;;13.75;11.27;;;21.90;91.10;;;;;;5037432;28;20025;-88
2021/06/19 06:38:03;;;;;;;13.90;11.55;;;22.00;91.00;;;;;;5055876;28;20047;-88
2021/06/19 06:40:29;;;;;;;17.05;12.50;;;22.00;91.00;;;;;;5056230;28;20047;-88
2021/06/19 06:42:54;;;;;;;14.25;11.98;;;22.00;90.90;;;;;;5055681;28;20100;-88
2021/06/19 06:45:20;;;;;;;15.00;13.07;;;22.00;90.80;;;;;;5034807;28;20028;-88
2021/06/19 06:47:46;;;;;;;15.57;13.05;;;22.00;90.70;;;;;;5068657;28;20394;-88
2021/06/19 06:50:12;;;;;;;13.35;11.88;;;22.00;90.50;;;;;;5037989;28;20033;-88
2021/06/19 06:52:38;;;;;;;14.10;11.85;;;22.00;90.40;;;;;;5054588;28;20025;-89
2021/06/19 06:55:05;;;;;;;14.57;11.60;;;22.00;90.30;;;;;;5038234;28;20584;-89
2021/06/19 06:57:31;;;;;;;15.82;12.35;;;22.10;90.30;;;;;;5051448;28;20029;-88
2021/06/19 06:59:57;;;;;;;16.27;11.27;;;22.10;90.40;;;;;;5054365;28;20017;-88
2021/06/19 07:02:23;;;;;;;15.77;11.63;;;22.10;90.40;;;;;;5054620;28;20036;-90
2021/06/19 07:04:50;;;;;;;14.75;10.38;;;22.10;90.10;;;;;;5070746;28;20033;-89
2021/06/19 07:07:16;;;;;;;14.25;10.98;;;22.20;90.00;;;;;;5037449;28;20040;-89
2021/06/19 07:09:41;;;;;;;11.82;9.55;;;22.20;89.70;;;;;;5051481;28;20025;-88
2021/06/19 07:12:08;;;;;;;15.10;10.18;;;22.20;89.90;;;;;;5053977;28;20106;-88
2021/06/19 07:14:34;;;;;;;12.55;9.02;;;22.30;88.60;;;;;;5034215;28;20021;-88
2021/06/19 07:17:00;;;;;;;11.10;8.82;;;22.20;88.20;;;;;;5069561;28;20113;-88
2021/06/19 07:19:26;;;;;;;11.10;7.80;;;22.30;88.00;;;;;;5053961;28;20039;-89
2021/06/19 07:21:52;;;;;;;14.00;8.80;;;22.30;88.00;;;;;;5053615;28;20017;-88
2021/06/19 07:24:17;;;;;;;10.00;7.68;;;22.30;87.90;;;;;;5054023;28;20103;-90
2021/06/19 07:26:43;;;;;;;9.30;7.47;;;22.40;88.60;;;;;;5036929;28;20112;-89
2021/06/19 07:29:08;;;;;;;11.95;8.63;;;22.40;88.80;;;;;;5040052;23;20481;-87
2021/06/19 07:31:34;;;;;;;10.32;7.63;;;22.50;88.20;;;;;;5016507;28;20040;-87
2021/06/19 07:34:00;;;;;;;11.52;8.00;;;22.50;88.40;;;;;;5049142;28;20429;-87
2021/06/19 07:36:26;;;;;;;12.15;8.95;;;22.50;88.40;;;;;;5012776;28;20112;-87
2021/06/19 07:38:51;;;;;;;11.30;8.77;;;22.60;87.70;;;;;;5029472;28;20029;-86
2021/06/19 07:41:26;;;;;;;10.60;9.25;;;22.60;87.20;;;;;;4996174;28;20061;-87
2021/06/19 07:43:53;;;;;;;9.60;8.23;;;22.60;87.20;;;;;;5028794;28;20061;-87
2021/06/19 07:46:19;;;;;;;12.75;10.18;;;22.70;87.00;;;;;;5032726;28;20036;-87
2021/06/19 07:48:45;;;;;;;12.80;10.50;;;22.60;85.50;;;;;;5032545;28;20037;-87
2021/06/19 07:51:10;;;;;;;11.10;9.05;;;22.50;84.30;;;;;;5029351;28;20490;-87
2021/06/19 07:53:36;;;;;;;13.35;10.07;;;22.50;85.20;;;;;;5008618;28;20054;-87
2021/06/19 07:56:02;;;;;;;12.65;9.35;;;22.50;85.40;;;;;;5027495;28;20029;-87
2021/06/19 07:58:28;;;;;;;11.00;7.95;;;22.50;85.00;;;;;;5032605;28;20542;-87
2021/06/19 08:00:54;;;;;;;12.82;9.60;;;22.50;85.50;;;;;;5032288;28;20018;-87
2021/06/19 08:03:20;;;;;;;12.13;9.30;;;22.50;85.20;;;;;;5012582;28;20133;-87
2021/06/19 08:05:46;;;;;;;10.90;9.05;;;22.50;85.30;;;;;;5023031;28;20060;-87
2021/06/19 08:08:12;;;;;;;11.63;9.60;;;22.60;85.80;;;;;;5032329;28;20546;-87
2021/06/19 08:10:37;;;;;;;11.77;9.27;;;22.60;85.40;;;;;;5032435;28;20144;-87
2021/06/19 08:13:03;;;;;;;12.00;9.73;;;22.60;86.00;;;;;;5029422;28;20128;-87
2021/06/19 08:15:29;;;;;;;11.73;9.27;;;22.70;86.00;;;;;;5029029;28;20125;-87
2021/06/19 08:17:55;;;;;;;11.27;8.93;;;22.70;85.70;;;;;;5021777;28;20480;-86
2021/06/19 08:20:21;;;;;;;9.82;8.43;;;22.80;86.00;;;;;;5014441;28;20024;-87
2021/06/19 08:23:05;;;;;;;13.13;9.93;;;22.90;86.60;;;;;;5032179;28;20025;-87
2021/06/19 08:25:31;;;;;;;15.30;11.05;;;23.00;86.30;;;;;;5015614;28;20076;-87
2021/06/19 08:27:57;;;;;;;13.20;11.70;;;23.00;85.00;;;;;;5032210;28;20522;-87
2021/06/19 08:30:23;;;;;;;16.65;13.20;;;23.00;84.60;;;;;;5069828;28;20047;-87
2021/06/19 08:32:49;;;;;;;15.20;11.85;;;23.00;84.50;;;;;;5071944;28;20032;-87
2021/06/19 08:35:15;;;;;;;15.52;11.80;;;23.00;84.40;;;;;;5050525;28;20025;-87
2021/06/19 08:37:41;;;;;;;16.25;12.63;;;23.00;84.80;;;;;;5084831;28;20021;-87
2021/06/19 08:40:07;;;;;;;16.52;12.93;;;23.00;84.90;;;;;;5065108;28;20017;-87
2021/06/19 08:42:33;;;;;;;20.55;14.95;;;23.00;84.80;;;;;;5054969;28;20028;-87
2021/06/19 08:44:59;;;;;;;18.60;14.00;;;23.00;84.80;;;;;;5063001;28;20024;-87
2021/06/19 08:47:26;;;;;;;15.40;12.50;;;23.00;84.80;;;;;;5088368;28;20378;-87
2021/06/19 08:49:53;;;;;;;16.65;11.90;;;23.00;84.80;;;;;;5061350;28;20429;-87
2021/06/19 08:52:19;;;;;;;13.45;10.95;;;23.10;84.70;;;;;;5072745;28;20085;-87
2021/06/19 08:54:45;;;;;;;11.90;10.38;;;23.10;84.80;;;;;;5058516;28;20130;-87
2021/06/19 08:57:16;;;;;;;11.57;9.23;;;23.10;85.40;;;;;;5044662;28;20021;-86
2021/06/19 08:59:49;;;;;;;10.75;9.30;;;23.20;85.30;;;;;;5057200;28;20060;-87
2021/06/19 09:02:19;;;;;;;12.38;8.57;;;23.30;85.60;;;;;;5018425;28;20074;-87
2021/06/19 09:04:54;;;;;;;10.60;9.18;;;23.30;85.50;;;;;;5063461;28;20028;-87
2021/06/19 09:07:40;;;;;;;11.07;9.60;;;23.40;85.20;;;;;;5054731;28;20024;-87
2021/06/19 09:10:24;;;;;;;10.15;8.65;;;23.40;85.50;;;;;;5067811;28;20090;-87
2021/06/19 09:13:10;;;;;;;11.15;8.85;;;23.50;85.60;;;;;;5054743;28;20119;-87
2021/06/19 09:15:45;;;;;;;11.05;8.15;;;23.50;84.90;;;;;;5068120;28;20482;-86
2021/06/19 09:18:28;;;;;;;10.43;8.50;;;23.60;84.70;;;;;;5082407;28;20033;-87
2021/06/19 09:20:55;;;;;;;10.05;8.27;;;23.60;84.40;;;;;;5036276;28;20029;-86
2021/06/19 09:23:29;;;;;;;10.65;9.20;;;23.60;84.50;;;;;;5065081;28;20420;-87
2021/06/19 09:26:15;;;;;;;10.85;8.60;;;23.70;84.40;;;;;;5056651;28;20021;-87
2021/06/19 09:29:15;;;;;;;11.48;8.68;;;23.70;84.70;;;;;;5070668;28;20040;-87
2021/06/19 09:31:48;;;;;;;13.60;10.55;;;23.80;84.10;;;;;;5025636;28;20102;-87
2021/06/19 09:34:19;;;;;;;9.48;8.00;;;23.80;82.10;;;;;;5041531;28;20029;-87
2021/06/19 09:36:54;;;;;;;12.70;9.25;;;23.70;82.80;;;;;;5064922;28;20024;-87
2021/06/19 09:39:29;;;;;;;10.55;8.55;;;23.80;83.60;;;;;;5057805;28;20048;-87
2021/06/19 09:41:57;;;;;;;10.95;8.57;;;23.80;84.40;;;;;;5072288;28;20035;-87
2021/06/19 09:44:42;;;;;;;11.15;8.40;;;23.80;84.00;;;;;;5040454;28;20024;-87
2021/06/19 09:47:09;;;;;;;12.70;10.32;;;23.90;84.30;;;;;;5054007;28;20028;-87
2021/06/19 09:49:38;;;;;;;14.10;10.73;;;24.00;83.10;;;;;;5054071;28;20028;-87
2021/06/19 09:52:04;;;;;;;13.20;10.35;;;24.00;82.10;;;;;;5038006;28;20477;-86
2021/06/19 09:54:39;;;;;;;10.50;8.73;;;24.00;82.30;;;;;;5039563;28;20029;-87
2021/06/19 09:57:07;;;;;;;10.35;8.70;;;24.00;82.80;;;;;;5035457;28;20059;-87
2021/06/19 09:59:35;;;;;;;11.35;8.63;;;24.10;83.10;;;;;;5035297;28;20014;-87
2021/06/19 10:02:03;;;;;;;12.07;9.23;;;24.10;82.60;;;;;;5042134;28;20039;-87
2021/06/19 10:04:35;;;;;;;11.45;9.52;;;24.20;82.40;;;;;;5055345;28;20052;-87
2021/06/19 10:07:00;;;;;;;10.57;8.30;;;24.20;82.20;;;;;;5054722;28;20036;-87
2021/06/19 10:09:26;;;;;;;12.70;10.02;;;24.30;82.60;;;;;;5034171;28;20024;-88
2021/06/19 10:11:54;;;;;;;10.80;8.70;;;24.30;81.00;;;;;;5053235;28;20096;-87
2021/06/19 10:14:23;;;;;;;10.90;9.07;;;24.40;81.50;;;;;;5065559;28;20104;-88
2021/06/19 10:16:55;;;;;;;13.10;9.55;;;24.40;80.80;;;;;;5054508;28;20060;-88
2021/06/19 10:19:26;;;;;;;11.48;8.77;;;24.40;80.90;;;;;;5081786;28;20051;-87
2021/06/19 10:21:54;;;;;;;10.73;8.93;;;24.50;80.40;;;;;;5091265;28;20104;-87
2021/06/19 10:24:21;;;;;;;8.77;7.72;;;24.50;79.80;;;;;;5063824;28;20025;-87
2021/06/19 10:26:48;;;;;;;8.57;7.40;;;24.50;80.50;;;;;;5090945;28;20059;-87
2021/06/19 10:29:15;;;;;;;11.73;10.23;;;24.60;82.00;;;;;;5024549;28;20447;-87
2021/06/19 10:31:46;;;;;;;10.10;9.00;;;24.50;77.70;;;;;;5068278;28;20033;-87
2021/06/19 10:34:20;;;;;;;9.85;8.00;;;24.50;78.40;;;;;;5074212;28;20024;-87
2021/06/19 10:36:47;;;;;;;10.10;7.30;;;24.50;79.30;;;;;;5074251;28;20086;-87
2021/06/19 10:39:15;;;;;;;9.25;8.18;;;24.50;80.10;;;;;;5041038;28;20466;-87
2021/06/19 10:41:51;;;;;;;10.10;8.55;;;24.60;79.80;;;;;;5049970;28;20086;-86
2021/06/19 10:44:48;;;;;;;9.70;8.70;;;24.60;80.00;;;;;;5058087;28;20410;-86
2021/06/19 10:47:13;;;;;;;9.80;8.80;;;24.60;80.30;;;;;;5075107;28;20039;-87
2021/06/19 10:49:41;;;;;;;10.85;9.75;;;24.70;80.10;;;;;;5069736;28;20033;-88
2021/06/19 10:52:33;;;;;;;10.48;9.38;;;24.70;78.90;;;;;;5051007;28;20493;-88
2021/06/19 10:55:08;;;;;;;12.38;10.63;;;24.70;78.40;;;;;;5074823;28;20059;-88
2021/06/19 10:57:48;;;;;;;13.13;10.30;;;24.70;77.90;;;;;;5090819;28;20031;-88
2021/06/19 11:00:47;;;;;;;11.02;9.23;;;24.60;78.20;;;;;;5083635;28;20367;-88
2021/06/19 11:03:14;;;;;;;10.05;8.75;;;24.60;79.60;;;;;;5052231;28;20036;-88
2021/06/19 11:05:40;;;;;;;12.05;10.05;;;24.60;79.40;;;;;;5074955;28;20076;-87
2021/06/19 11:08:17;;;;;;;11.63;10.43;;;24.60;78.80;;;;;;5057078;28;20117;-87
2021/06/19 11:10:49;;;;;;;11.18;10.07;;;24.60;78.20;;;;;;5056992;28;20066;-88
2021/06/19 11:13:41;;;;;;;10.90;9.80;;;24.60;78.00;;;;;;5056812;28;20108;-87
2021/06/19 11:16:32;;;;;;;12.02;10.82;;;24.60;78.70;;;;;;5068876;28;20039;-88
2021/06/19 11:18:58;;;;;;;11.20;10.00;;;24.50;78.60;;;;;;5070156;28;20428;-87
2021/06/19 11:21:32;;;;;;;10.90;9.68;;;24.50;78.80;;;;;;5067364;28;20439;-88
2021/06/19 11:24:04;;;;;;;13.00;11.05;;;24.60;78.90;;;;;;5060162;28;20056;-88
2021/06/19 11:26:53;;;;;;;11.20;9.95;;;24.60;78.40;;;;;;5077468;28;20051;-88
2021/06/19 11:29:34;;;;;;;12.02;10.55;;;24.70;79.80;;;;;;5050262;28;20102;-88
2021/06/19 11:32:25;;;;;;;13.77;12.40;;;24.80;79.70;;;;;;5090430;28;20481;-88
2021/06/19 11:34:59;;;;;;;10.75;9.65;;;24.80;78.50;;;;;;5073630;28;20032;-87
2021/06/19 11:38:04;;;;;;;14.75;13.25;;;24.80;79.20;;;;;;5058296;28;20023;-88
2021/06/19 11:40:32;;;;;;;14.65;13.15;;;24.80;77.90;;;;;;5032575;28;20142;-88
2021/06/19 11:42:58;;;;;;;13.40;12.10;;;24.80;77.70;;;;;;5004180;28;20073;-88
2021/06/19 11:45:24;;;;;;;13.93;12.60;;;24.80;78.30;;;;;;5020642;28;20025;-88
2021/06/19 11:48:19;;;;;;;13.88;12.50;;;24.80;78.70;;;;;;5056927;28;20028;-88
2021/06/19 11:50:46;;;;;;;13.73;12.30;;;24.80;79.00;;;;;;5043264;28;20037;-88
2021/06/19 11:53:34;;;;;;;16.25;14.65;;;24.90;79.40;;;;;;5074505;28;20497;-88
2021/06/19 11:56:13;;;;;;;13.63;12.27;;;24.80;78.20;;;;;;5086287;28;20054;-88
2021/06/19 11:59:01;;;;;;;14.45;13.05;;;24.90;78.90;;;;;;5048919;28;20017;-88
2021/06/19 12:01:38;;;;;;;13.35;12.05;;;24.90;78.40;;;;;;5089825;28;20032;-88
2021/06/19 12:04:15;;;;;;;14.50;13.00;;;25.00;79.30;;;;;;5080041;28;20389;-88
2021/06/19 12:06:43;;;;;;;13.85;12.55;;;25.00;79.80;;;;;;5089148;28;20461;-88
2021/06/19 12:09:32;;;;;;;13.27;11.88;;;25.10;79.80;;;;;;5036595;28;20049;-88
2021/06/19 12:12:18;;;;;;;12.65;11.35;;;25.20;80.60;;;;;;5070184;28;20111;-88
2021/06/19 12:14:44;;;;;;;13.77;12.45;;;25.30;80.50;;;;;;5066817;28;20138;-88
2021/06/19 12:17:12;;;;;;;14.10;12.70;;;25.40;79.90;;;;;;5042363;28;20025;-88
2021/06/19 12:19:41;;;;;;;13.27;11.98;;;25.50;80.10;;;;;;5076952;28;20021;-88
2021/06/19 12:22:13;;;;;;;13.70;12.30;;;25.60;80.50;;;;;;5072847;28;20031;-88
2021/06/19 12:24:44;;;;;;;14.55;13.02;;;25.60;78.80;;;;;;5064409;28;20055;-88
2021/06/19 12:27:11;;;;;;;;;;;25.70;79.20;;;;;;5056226;28;20016;-88
2021/06/19 12:29:40;;;;;;;15.00;13.45;;;25.70;78.50;;;;;;5055926;28;19923;-88
2021/06/19 12:32:28;;;;;;;14.30;12.82;;;25.70;78.60;;;;;;5055585;28;20031;-88
2021/06/19 12:34:57;;;;;;;14.35;12.98;;;25.70;78.50;;;;;;5080059;28;20033;-89
2021/06/19 12:37:26;;;;;;;15.20;13.70;;;25.70;77.30;;;;;;5073320;28;20025;-87
2021/06/19 12:39:52;;;;;;;13.38;11.98;;;25.60;76.50;;;;;;5072390;28;20021;-88
2021/06/19 12:42:46;;;;;;;12.35;11.13;;;25.60;77.10;;;;;;5069448;28;20016;-88
2021/06/19 12:45:17;;;;;;;13.65;12.35;;;25.60;77.10;;;;;;5069061;28;20033;-88
2021/06/19 12:47:46;;;;;;;14.02;12.63;;;25.60;77.30;;;;;;5057812;28;20389;-88
2021/06/19 12:50:14;;;;;;;12.70;11.40;;;25.50;76.40;;;;;;5073347;28;20074;-88
2021/06/19 12:52:59;;;;;;;14.75;13.27;;;25.50;76.90;;;;;;5035612;28;20033;-87
2021/06/19 12:55:27;;;;;;;13.93;12.52;;;25.50;76.20;;;;;;5052226;28;20115;-88